KGRB/GRB METAR and TAF weather

Enter ICAO airport designator
Station Type Date Time Source
KGRB METAR 2021/04/17 01:53 UTC NOAA

KGRB 170153Z 11011KT 10SM CLR 06/01 A2999 RMK AO2 SLP162 T00560006


Station Type Date Time Source
KGRB Decoded METAR 2021/04/17 01:53 UTC NOAA

AUSTIN STRAUBEL INTERNATIONAL AIRPORT , WI, United States (KGRB) 44-29N 088-08W 205M
Apr 16, 2021 - 09:53 PM EDT / 2021.04.17 0153 UTC
Wind: from the ESE (110 degrees) at 13 MPH (11 KT):0
Visibility: 10 mile(s):0
Sky conditions: clear
Temperature: 42.1 F (5.6 C)
Dew Point: 33.1 F (0.6 C)
Relative Humidity: 70%
Pressure (altimeter): 29.99 in. Hg (1015 hPa)
ob: KGRB 170153Z 11011KT 10SM CLR 06/01 A2999 RMK AO2 SLP162 T00560006
cycle: 2

Station Type Date Time Source
KGRB TAF 2021/04/17 00:24 UTC NOAA

TAF
AMD KGRB 170021Z 1700/1724 06010KT P6SM SKC
FM170200 07005KT P6SM SCT250
FM170800 35004KT P6SM SCT250
FM171700 03005KT P6SM SCT050
FM172300 12010KT P6SM FEW060

Example: see airport list